createdAt,value
2022-08-16T00:05:02.174Z,98774.56
2022-08-16T00:10:08.627Z,98773.61
2022-08-16T00:15:51.986Z,98771.57
2022-08-16T00:20:53.654Z,98770.66
2022-08-16T00:26:34.963Z,98773.81
2022-08-16T00:31:20.131Z,98770.69
2022-08-16T00:36:27.881Z,98780.61
2022-08-16T00:41:32.421Z,98779.09
2022-08-16T00:47:06.140Z,98777.14
2022-08-16T00:52:30.327Z,98771.79
2022-08-16T00:57:58.302Z,98762.81
2022-08-16T01:03:03.595Z,98769.33
2022-08-16T01:08:35.120Z,98764.33
2022-08-16T01:13:35.578Z,98762.20
2022-08-16T01:18:55.898Z,98756.95
2022-08-16T01:24:52.291Z,98746.89
2022-08-16T01:30:19.517Z,98751.39
2022-08-16T01:35:30.647Z,98744.36
2022-08-16T01:40:38.691Z,98735.29
2022-08-16T01:45:43.491Z,98729.18
2022-08-16T01:51:09.217Z,98728.95
2022-08-16T01:56:24.494Z,98719.70
2022-08-16T02:01:29.960Z,98724.13
2022-08-16T02:06:37.893Z,98728.74
2022-08-16T02:11:48.558Z,98728.73
2022-08-16T02:16:59.472Z,98724.08
2022-08-16T02:22:08.927Z,98715.92
2022-08-16T02:27:26.742Z,98712.55
2022-08-16T02:32:49.000Z,98718.17
2022-08-16T02:37:56.181Z,98718.89
2022-08-16T02:42:59.514Z,98719.23
2022-08-16T02:48:29.503Z,98723.88
2022-08-16T02:53:27.075Z,98732.23
2022-08-16T02:58:33.889Z,98731.50
2022-08-16T03:04:39.792Z,98729.91
2022-08-16T03:09:01.285Z,98729.84
2022-08-16T03:14:07.389Z,98729.92
2022-08-16T03:19:11.090Z,98726.84
2022-08-16T03:24:29.260Z,98722.30
2022-08-16T03:29:34.012Z,98719.06
2022-08-16T03:34:37.048Z,98729.98
2022-08-16T03:39:42.928Z,98735.20
2022-08-16T03:44:47.554Z,98736.05
2022-08-16T03:49:52.539Z,98735.60
2022-08-16T03:54:58.266Z,98736.50
2022-08-16T04:00:20.613Z,98737.10
2022-08-16T04:05:47.442Z,98743.02
2022-08-16T04:10:53.050Z,98755.48
2022-08-16T04:15:59.422Z,98753.66
2022-08-16T04:21:04.634Z,98749.61
2022-08-16T04:26:08.260Z,98762.45
2022-08-16T04:31:20.621Z,98762.90
2022-08-16T04:36:23.811Z,98763.25
2022-08-16T04:41:32.897Z,98769.65
2022-08-16T04:47:02.936Z,98769.30
2022-08-16T04:52:05.878Z,98771.06
2022-08-16T04:57:30.132Z,98775.79
2022-08-16T05:02:41.503Z,98779.33
2022-08-16T05:07:59.645Z,98784.46
2022-08-16T05:13:04.861Z,98788.98
2022-08-16T05:18:16.183Z,98785.63
2022-08-16T05:23:21.154Z,98791.06
2022-08-16T05:28:37.367Z,98791.61
2022-08-16T05:33:42.096Z,98795.77
2022-08-16T05:38:45.661Z,98793.47
2022-08-16T05:43:49.477Z,98794.61
2022-08-16T05:48:55.246Z,98790.65
2022-08-16T05:53:59.884Z,98777.09
2022-08-16T05:59:03.031Z,98789.52
2022-08-16T06:04:12.888Z,98790.92
2022-08-16T06:09:43.551Z,98789.30
2022-08-16T06:14:47.524Z,98779.26
2022-08-16T06:19:54.889Z,98780.19
2022-08-16T06:24:59.027Z,98788.39
2022-08-16T06:30:04.135Z,98792.46
2022-08-16T06:35:09.673Z,98796.89
2022-08-16T06:40:15.929Z,98797.36
2022-08-16T06:45:19.734Z,98789.84
2022-08-16T06:50:29.699Z,98793.98
2022-08-16T06:55:34.852Z,98796.45
2022-08-16T07:00:42.996Z,98795.95
2022-08-16T07:05:46.829Z,98796.07
2022-08-16T07:10:51.224Z,98801.43
2022-08-16T07:15:54.526Z,98810.37
2022-08-16T07:21:01.979Z,98813.90
2022-08-16T07:26:11.425Z,98808.89
2022-08-16T07:31:38.083Z,98804.00
2022-08-16T07:36:41.526Z,98806.66
2022-08-16T07:41:48.521Z,98803.25
2022-08-16T07:46:55.462Z,98804.73
2022-08-16T07:51:59.728Z,98806.13
2022-08-16T07:57:02.870Z,98809.19
2022-08-16T08:02:06.278Z,98814.07
2022-08-16T08:07:16.263Z,98805.04
2022-08-16T08:12:31.612Z,98804.08
2022-08-16T08:17:43.026Z,98801.38
2022-08-16T08:22:49.386Z,98804.98
2022-08-16T08:27:57.464Z,98813.35
2022-08-16T08:33:01.314Z,98824.58
2022-08-16T08:38:08.664Z,98824.15
2022-08-16T08:43:17.960Z,98823.95
2022-08-16T08:48:33.329Z,98824.92
2022-08-16T08:53:39.907Z,98822.95
2022-08-16T08:58:53.689Z,98824.45
2022-08-16T09:03:58.677Z,98829.80
2022-08-16T09:09:03.648Z,98826.50
2022-08-16T09:14:07.318Z,98829.46
2022-08-16T09:19:10.298Z,98826.55
2022-08-16T09:24:13.342Z,98826.46
2022-08-16T09:29:44.863Z,98825.34
2022-08-16T09:34:48.973Z,98836.05
2022-08-16T09:39:52.471Z,98839.55
2022-08-16T09:45:11.181Z,98837.90
2022-08-16T09:50:22.660Z,98841.83
2022-08-16T09:55:29.064Z,98846.56
2022-08-16T10:00:44.506Z,98852.65
2022-08-16T10:05:49.705Z,98857.77
2022-08-16T10:11:11.994Z,98855.93
2022-08-16T10:21:23.574Z,98868.56
2022-08-16T10:27:17.071Z,98874.65
2022-08-16T10:31:53.629Z,98875.69
2022-08-16T10:37:02.521Z,98878.45
2022-08-16T10:42:07.139Z,98885.04
2022-08-16T10:47:12.010Z,98891.03
2022-08-16T10:52:19.036Z,98887.02
2022-08-16T10:57:24.603Z,98888.94
2022-08-16T11:02:57.560Z,98895.84
2022-08-16T11:07:53.531Z,98886.60
2022-08-16T11:13:21.156Z,98889.66
2022-08-16T11:18:48.604Z,98894.89
2022-08-16T11:23:57.566Z,98894.83
2022-08-16T11:29:17.540Z,98895.40
2022-08-16T11:34:22.015Z,98892.02
2022-08-16T11:39:25.099Z,98894.02
2022-08-16T11:44:45.376Z,98894.97
2022-08-16T11:49:51.775Z,98892.40
2022-08-16T11:54:57.055Z,98892.36
2022-08-16T12:00:33.855Z,98887.50
2022-08-16T12:05:35.360Z,98878.60
2022-08-16T12:10:43.114Z,98876.08
2022-08-16T12:15:47.552Z,98878.64
2022-08-16T12:20:51.928Z,98873.38
2022-08-16T12:25:58.556Z,98869.13
2022-08-16T12:31:02.936Z,98863.63
2022-08-16T12:36:06.203Z,98846.98
2022-08-16T12:41:24.450Z,98845.73
2022-08-16T12:46:29.950Z,98844.77
2022-08-16T12:51:59.046Z,98845.09
2022-08-16T12:57:03.195Z,98844.19
2022-08-16T13:02:06.711Z,98839.25
2022-08-16T13:07:16.508Z,98830.23
2022-08-16T13:12:25.084Z,98825.36
2022-08-16T13:17:29.813Z,98815.65
2022-08-16T13:22:33.359Z,98814.75
2022-08-16T13:28:01.680Z,98815.52
2022-08-16T13:32:59.920Z,98812.23
2022-08-16T13:38:03.680Z,98798.40
2022-08-16T13:43:11.396Z,98803.84
2022-08-16T13:48:21.838Z,98806.06
2022-08-16T13:53:28.532Z,98809.41
2022-08-16T13:58:37.143Z,98802.09
2022-08-16T14:03:54.526Z,98795.61
2022-08-16T14:08:59.323Z,98799.64
2022-08-16T14:14:11.128Z,98799.09
2022-08-16T14:19:19.032Z,98789.41
2022-08-16T14:24:30.244Z,98787.14
2022-08-16T14:29:35.124Z,98778.05
2022-08-16T14:34:41.940Z,98770.50
2022-08-16T14:39:45.438Z,98766.48
2022-08-16T14:44:49.332Z,98763.47
2022-08-16T14:49:53.034Z,98770.92
2022-08-16T14:54:56.581Z,98768.09
2022-08-16T15:00:06.206Z,98767.05
2022-08-16T15:05:12.021Z,98765.09
2022-08-16T15:10:24.097Z,98766.36
2022-08-16T15:15:30.151Z,98770.33
2022-08-16T15:20:35.677Z,98773.28
2022-08-16T15:25:47.186Z,98775.70
2022-08-16T15:31:14.988Z,98779.35
2022-08-16T15:36:20.543Z,98788.43
2022-08-16T15:41:38.812Z,98787.94
2022-08-16T15:46:56.941Z,98793.27
2022-08-16T15:52:03.114Z,98800.88
2022-08-16T15:57:11.686Z,98808.14
2022-08-16T16:02:18.514Z,98813.27
2022-08-16T16:07:33.327Z,98824.98
2022-08-16T16:12:50.931Z,98826.31
2022-08-16T16:17:58.391Z,98819.83
2022-08-16T16:23:10.330Z,98820.71
2022-08-16T16:29:05.447Z,98821.17
2022-08-16T16:33:44.597Z,98823.48
2022-08-16T16:38:49.667Z,98832.00
2022-08-16T16:43:55.194Z,98831.77
2022-08-16T16:48:58.713Z,98837.13
2022-08-16T16:54:02.739Z,98842.27
2022-08-16T16:59:09.797Z,98847.42
2022-08-16T17:04:19.571Z,98846.27
2022-08-16T17:09:25.371Z,98845.62
2022-08-16T17:14:32.792Z,98847.02
2022-08-16T17:19:41.210Z,98856.05
2022-08-16T17:24:50.849Z,98849.80
2022-08-16T17:29:55.535Z,98854.74
2022-08-16T17:35:03.018Z,98863.29
2022-08-16T17:40:25.865Z,98871.51
2022-08-16T17:45:40.276Z,98877.64
2022-08-16T17:50:43.964Z,98884.34
2022-08-16T17:55:50.786Z,98886.59
2022-08-16T18:00:57.978Z,98890.48
2022-08-16T18:06:01.003Z,98890.58
2022-08-16T18:11:06.550Z,98895.74
2022-08-16T18:16:12.654Z,98895.33
2022-08-16T18:21:34.681Z,98897.28
2022-08-16T18:26:38.787Z,98904.54
2022-08-16T18:31:41.890Z,98904.05
2022-08-16T18:36:44.887Z,98902.94
2022-08-16T18:41:48.069Z,98897.46
2022-08-16T18:46:51.288Z,98899.91
2022-08-16T18:51:59.443Z,98903.70
2022-08-16T18:57:07.247Z,98903.70
2022-08-16T19:02:57.117Z,98900.20
2022-08-16T19:07:34.083Z,98897.72
2022-08-16T19:12:42.148Z,98896.35
2022-08-16T19:17:46.161Z,98899.89
2022-08-16T19:23:10.145Z,98907.73
2022-08-16T19:28:48.869Z,98899.92
2022-08-16T19:33:40.287Z,98893.04
2022-08-16T19:38:43.338Z,98896.16
2022-08-16T19:43:47.634Z,98897.86
2022-08-16T19:48:50.662Z,98896.54
2022-08-16T19:53:53.735Z,98890.98
2022-08-16T19:59:18.184Z,98886.66
2022-08-16T20:04:21.929Z,98893.63
2022-08-16T20:09:25.456Z,98893.13
2022-08-16T20:14:28.479Z,98895.41
2022-08-16T20:19:40.080Z,98896.92
2022-08-16T20:24:43.985Z,98917.80
2022-08-16T20:29:48.592Z,98931.02
2022-08-16T20:34:55.130Z,98933.61
2022-08-16T20:40:28.002Z,98939.27
2022-08-16T20:45:26.980Z,98936.96
2022-08-16T20:50:30.829Z,98931.55
2022-08-16T20:55:36.606Z,98930.64
2022-08-16T21:00:40.587Z,98934.22
2022-08-16T21:05:44.090Z,98929.78
2022-08-16T21:10:47.123Z,98927.62
2022-08-16T21:15:50.111Z,98924.09
2022-08-16T21:20:53.799Z,98922.96
2022-08-16T21:25:59.238Z,98921.21
2022-08-16T21:31:02.909Z,98917.95
2022-08-16T21:36:06.415Z,98920.42
2022-08-16T21:41:12.949Z,98917.52
2022-08-16T21:46:16.047Z,98915.21
2022-08-16T21:51:19.072Z,98908.70
2022-08-16T21:56:22.110Z,98909.23
2022-08-16T22:01:26.656Z,98906.63
2022-08-16T22:06:29.723Z,98912.83
2022-08-16T22:11:33.587Z,98917.98
2022-08-16T22:16:39.804Z,98919.73
2022-08-16T22:21:42.901Z,98918.26
2022-08-16T22:26:45.910Z,98922.04
2022-08-16T22:31:48.957Z,98924.08
2022-08-16T22:36:51.969Z,98918.54
2022-08-16T22:41:55.236Z,98921.61
2022-08-16T22:46:58.603Z,98913.79
2022-08-16T22:52:07.475Z,98919.39
2022-08-16T22:57:10.580Z,98918.86
2022-08-16T23:02:15.091Z,98915.46
2022-08-16T23:07:18.297Z,98914.48
2022-08-16T23:12:26.236Z,98909.52
2022-08-16T23:17:32.325Z,98901.05
2022-08-16T23:23:19.968Z,98900.27
2022-08-16T23:28:16.834Z,98898.66
2022-08-16T23:33:21.919Z,98900.30
2022-08-16T23:38:37.571Z,98899.16
2022-08-16T23:43:43.648Z,98894.14
2022-08-16T23:49:56.907Z,98891.64
2022-08-16T23:54:11.767Z,98893.47
2022-08-16T23:59:14.779Z,98889.88
